sensor_id;sensor_type;location;lat;lon;timestamp;temperature;humidity
40023;DHT22;25713;-35.352;149.036;2023-05-14T00:01:03;14.70;86.70
40023;DHT22;25713;-35.352;149.036;2023-05-14T00:03:33;14.70;86.70
40023;DHT22;25713;-35.352;149.036;2023-05-14T00:06:02;14.70;86.50
40023;DHT22;25713;-35.352;149.036;2023-05-14T00:08:32;14.80;85.90
40023;DHT22;25713;-35.352;149.036;2023-05-14T00:11:03;14.80;85.20
40023;DHT22;25713;-35.352;149.036;2023-05-14T00:13:33;14.80;85.40
40023;DHT22;25713;-35.352;149.036;2023-05-14T00:16:02;14.80;85.90
40023;DHT22;25713;-35.352;149.036;2023-05-14T00:18:32;14.90;86.20
40023;DHT22;25713;-35.352;149.036;2023-05-14T00:21:01;14.90;85.70
40023;DHT22;25713;-35.352;149.036;2023-05-14T00:23:31;14.90;85.30
40023;DHT22;25713;-35.352;149.036;2023-05-14T00:26:00;15.00;84.90
40023;DHT22;25713;-35.352;149.036;2023-05-14T00:28:33;15.00;85.10
40023;DHT22;25713;-35.352;149.036;2023-05-14T00:31:01;15.10;85.10
40023;DHT22;25713;-35.352;149.036;2023-05-14T00:33:31;15.10;84.90
40023;DHT22;25713;-35.352;149.036;2023-05-14T00:36:00;15.20;84.80
40023;DHT22;25713;-35.352;149.036;2023-05-14T00:38:30;15.10;84.60
40023;DHT22;25713;-35.352;149.036;2023-05-14T00:40:59;15.10;84.10
40023;DHT22;25713;-35.352;149.036;2023-05-14T00:43:33;15.00;84.10
40023;DHT22;25713;-35.352;149.036;2023-05-14T00:46:03;15.00;84.20
40023;DHT22;25713;-35.352;149.036;2023-05-14T00:48:33;15.00;84.70
40023;DHT22;25713;-35.352;149.036;2023-05-14T00:51:02;15.00;84.70
40023;DHT22;25713;-35.352;149.036;2023-05-14T00:53:32;15.00;84.90
40023;DHT22;25713;-35.352;149.036;2023-05-14T00:56:01;15.10;84.00
40023;DHT22;25713;-35.352;149.036;2023-05-14T00:58:34;15.10;85.00
40023;DHT22;25713;-35.352;149.036;2023-05-14T01:01:04;15.20;85.00
40023;DHT22;25713;-35.352;149.036;2023-05-14T01:03:34;15.20;84.60
40023;DHT22;25713;-35.352;149.036;2023-05-14T01:06:10;15.20;84.60
40023;DHT22;25713;-35.352;149.036;2023-05-14T01:08:52;15.30;85.10
40023;DHT22;25713;-35.352;149.036;2023-05-14T01:11:31;15.30;84.70
40023;DHT22;25713;-35.352;149.036;2023-05-14T01:14:11;15.30;84.30
40023;DHT22;25713;-35.352;149.036;2023-05-14T01:16:43;15.30;84.40
40023;DHT22;25713;-35.352;149.036;2023-05-14T01:19:32;15.40;83.90
40023;DHT22;25713;-35.352;149.036;2023-05-14T01:22:05;15.40;84.80
40023;DHT22;25713;-35.352;149.036;2023-05-14T01:24:34;15.40;85.10
40023;DHT22;25713;-35.352;149.036;2023-05-14T01:27:11;15.40;84.90
40023;DHT22;25713;-35.352;149.036;2023-05-14T01:29:47;15.50;84.70
40023;DHT22;25713;-35.352;149.036;2023-05-14T01:32:19;15.50;84.30
40023;DHT22;25713;-35.352;149.036;2023-05-14T01:34:49;15.50;84.20
40023;DHT22;25713;-35.352;149.036;2023-05-14T01:37:22;15.60;83.10
40023;DHT22;25713;-35.352;149.036;2023-05-14T01:39:53;15.70;82.40
40023;DHT22;25713;-35.352;149.036;2023-05-14T01:42:23;15.70;82.00
40023;DHT22;25713;-35.352;149.036;2023-05-14T01:44:53;15.70;81.70
40023;DHT22;25713;-35.352;149.036;2023-05-14T01:47:23;15.80;81.10
40023;DHT22;25713;-35.352;149.036;2023-05-14T01:49:52;15.80;81.70
40023;DHT22;25713;-35.352;149.036;2023-05-14T01:52:25;15.80;82.80
40023;DHT22;25713;-35.352;149.036;2023-05-14T01:54:54;15.80;82.50
40023;DHT22;25713;-35.352;149.036;2023-05-14T01:57:24;15.80;82.40
40023;DHT22;25713;-35.352;149.036;2023-05-14T01:59:53;15.80;83.10
40023;DHT22;25713;-35.352;149.036;2023-05-14T02:02:23;15.80;83.10
40023;DHT22;25713;-35.352;149.036;2023-05-14T02:04:52;15.90;81.80
40023;DHT22;25713;-35.352;149.036;2023-05-14T02:07:25;15.90;81.30
40023;DHT22;25713;-35.352;149.036;2023-05-14T02:09:55;16.00;81.40
40023;DHT22;25713;-35.352;149.036;2023-05-14T02:12:24;16.10;81.80
40023;DHT22;25713;-35.352;149.036;2023-05-14T02:14:54;16.10;81.80
40023;DHT22;25713;-35.352;149.036;2023-05-14T02:17:25;16.10;82.30
40023;DHT22;25713;-35.352;149.036;2023-05-14T02:19:56;16.20;82.20
40023;DHT22;25713;-35.352;149.036;2023-05-14T02:22:28;16.20;81.00
40023;DHT22;25713;-35.352;149.036;2023-05-14T02:24:57;16.30;80.30
40023;DHT22;25713;-35.352;149.036;2023-05-14T02:27:27;16.30;79.80
40023;DHT22;25713;-35.352;149.036;2023-05-14T02:29:56;16.30;78.90
40023;DHT22;25713;-35.352;149.036;2023-05-14T02:32:26;16.40;78.90
40023;DHT22;25713;-35.352;149.036;2023-05-14T02:34:55;16.40;79.30
40023;DHT22;25713;-35.352;149.036;2023-05-14T02:37:28;16.40;79.30
40023;DHT22;25713;-35.352;149.036;2023-05-14T02:39:58;16.40;78.00
40023;DHT22;25713;-35.352;149.036;2023-05-14T02:42:27;16.50;78.40
40023;DHT22;25713;-35.352;149.036;2023-05-14T02:44:57;16.50;78.60
40023;DHT22;25713;-35.352;149.036;2023-05-14T02:47:26;16.50;78.20
40023;DHT22;25713;-35.352;149.036;2023-05-14T02:49:56;16.60;77.50
40023;DHT22;25713;-35.352;149.036;2023-05-14T02:52:29;16.60;78.10
40023;DHT22;25713;-35.352;149.036;2023-05-14T02:54:58;16.60;79.20
40023;DHT22;25713;-35.352;149.036;2023-05-14T02:57:28;16.60;78.80
40023;DHT22;25713;-35.352;149.036;2023-05-14T02:59:58;16.60;79.50
40023;DHT22;25713;-35.352;149.036;2023-05-14T03:02:27;16.60;77.80
40023;DHT22;25713;-35.352;149.036;2023-05-14T03:04:56;16.70;77.10
40023;DHT22;25713;-35.352;149.036;2023-05-14T03:07:28;16.60;76.40
40023;DHT22;25713;-35.352;149.036;2023-05-14T03:09:58;16.60;78.30
40023;DHT22;25713;-35.352;149.036;2023-05-14T03:12:27;16.70;78.20
40023;DHT22;25713;-35.352;149.036;2023-05-14T03:14:57;16.70;78.40
40023;DHT22;25713;-35.352;149.036;2023-05-14T03:17:27;16.70;77.20
40023;DHT22;25713;-35.352;149.036;2023-05-14T03:19:56;16.80;77.10
40023;DHT22;25713;-35.352;149.036;2023-05-14T03:22:29;16.80;76.70
40023;DHT22;25713;-35.352;149.036;2023-05-14T03:24:59;16.80;76.70
40023;DHT22;25713;-35.352;149.036;2023-05-14T03:27:28;16.80;77.20
40023;DHT22;25713;-35.352;149.036;2023-05-14T03:29:58;16.80;77.10
40023;DHT22;25713;-35.352;149.036;2023-05-14T03:32:27;16.80;77.10
40023;DHT22;25713;-35.352;149.036;2023-05-14T03:34:57;16.80;76.20
40023;DHT22;25713;-35.352;149.036;2023-05-14T03:37:30;16.80;78.10
40023;DHT22;25713;-35.352;149.036;2023-05-14T03:39:59;16.80;79.40
40023;DHT22;25713;-35.352;149.036;2023-05-14T03:42:29;16.80;79.60
40023;DHT22;25713;-35.352;149.036;2023-05-14T03:44:58;16.80;77.50
40023;DHT22;25713;-35.352;149.036;2023-05-14T03:47:28;16.90;76.90
40023;DHT22;25713;-35.352;149.036;2023-05-14T03:49:58;16.90;76.20
40023;DHT22;25713;-35.352;149.036;2023-05-14T03:52:30;17.00;76.30
40023;DHT22;25713;-35.352;149.036;2023-05-14T03:54:59;17.00;75.60
40023;DHT22;25713;-35.352;149.036;2023-05-14T03:57:29;17.00;76.30
40023;DHT22;25713;-35.352;149.036;2023-05-14T03:59:58;17.00;76.20
40023;DHT22;25713;-35.352;149.036;2023-05-14T04:02:28;17.00;74.10
40023;DHT22;25713;-35.352;149.036;2023-05-14T04:04:57;17.00;75.70
40023;DHT22;25713;-35.352;149.036;2023-05-14T04:07:27;17.00;77.00
40023;DHT22;25713;-35.352;149.036;2023-05-14T04:09:58;17.00;75.50
40023;DHT22;25713;-35.352;149.036;2023-05-14T04:12:28;17.00;76.90
40023;DHT22;25713;-35.352;149.036;2023-05-14T04:14:58;17.00;76.20
40023;DHT22;25713;-35.352;149.036;2023-05-14T04:17:29;17.10;75.80
40023;DHT22;25713;-35.352;149.036;2023-05-14T04:19:58;17.10;76.40
40023;DHT22;25713;-35.352;149.036;2023-05-14T04:22:28;17.10;77.30
40023;DHT22;25713;-35.352;149.036;2023-05-14T04:25:00;17.10;77.70
40023;DHT22;25713;-35.352;149.036;2023-05-14T04:27:29;17.10;78.50
40023;DHT22;25713;-35.352;149.036;2023-05-14T04:29:59;17.10;77.90
40023;DHT22;25713;-35.352;149.036;2023-05-14T04:32:28;17.10;77.30
40023;DHT22;25713;-35.352;149.036;2023-05-14T04:34:58;17.00;77.30
40023;DHT22;25713;-35.352;149.036;2023-05-14T04:37:27;17.10;77.40
40023;DHT22;25713;-35.352;149.036;2023-05-14T04:39:59;17.10;76.90
40023;DHT22;25713;-35.352;149.036;2023-05-14T04:42:28;17.10;76.30
40023;DHT22;25713;-35.352;149.036;2023-05-14T04:44:58;17.10;75.70
40023;DHT22;25713;-35.352;149.036;2023-05-14T04:47:27;17.10;74.00
40023;DHT22;25713;-35.352;149.036;2023-05-14T04:49:57;17.10;75.10
40023;DHT22;25713;-35.352;149.036;2023-05-14T04:52:26;17.10;76.50
40023;DHT22;25713;-35.352;149.036;2023-05-14T04:54:58;17.10;76.30
40023;DHT22;25713;-35.352;149.036;2023-05-14T04:57:28;17.10;73.60
40023;DHT22;25713;-35.352;149.036;2023-05-14T04:59:57;17.10;75.20
40023;DHT22;25713;-35.352;149.036;2023-05-14T05:02:26;17.10;75.50
40023;DHT22;25713;-35.352;149.036;2023-05-14T05:04:56;17.10;76.50
40023;DHT22;25713;-35.352;149.036;2023-05-14T05:07:26;17.10;77.30
40023;DHT22;25713;-35.352;149.036;2023-05-14T05:09:55;17.10;76.30
40023;DHT22;25713;-35.352;149.036;2023-05-14T05:12:28;17.10;75.90
40023;DHT22;25713;-35.352;149.036;2023-05-14T05:14:58;17.10;75.80
40023;DHT22;25713;-35.352;149.036;2023-05-14T05:17:27;17.10;74.50
40023;DHT22;25713;-35.352;149.036;2023-05-14T05:19:57;17.10;75.50
40023;DHT22;25713;-35.352;149.036;2023-05-14T05:22:27;17.10;75.60
40023;DHT22;25713;-35.352;149.036;2023-05-14T05:24:56;17.20;73.10
40023;DHT22;25713;-35.352;149.036;2023-05-14T05:27:29;17.10;74.30
40023;DHT22;25713;-35.352;149.036;2023-05-14T05:29:59;17.10;75.40
40023;DHT22;25713;-35.352;149.036;2023-05-14T05:32:29;17.10;75.20
40023;DHT22;25713;-35.352;149.036;2023-05-14T05:34:59;17.10;73.70
40023;DHT22;25713;-35.352;149.036;2023-05-14T05:37:29;17.10;73.30
40023;DHT22;25713;-35.352;149.036;2023-05-14T05:39:58;17.10;73.00
40023;DHT22;25713;-35.352;149.036;2023-05-14T05:42:30;17.10;74.10
40023;DHT22;25713;-35.352;149.036;2023-05-14T05:44:59;17.10;74.30
40023;DHT22;25713;-35.352;149.036;2023-05-14T05:47:29;17.10;75.00
40023;DHT22;25713;-35.352;149.036;2023-05-14T05:49:58;17.10;75.80
40023;DHT22;25713;-35.352;149.036;2023-05-14T05:52:28;17.10;75.90
40023;DHT22;25713;-35.352;149.036;2023-05-14T05:54:57;17.10;75.70
40023;DHT22;25713;-35.352;149.036;2023-05-14T05:57:30;17.10;76.50
40023;DHT22;25713;-35.352;149.036;2023-05-14T06:00:00;17.00;76.00
40023;DHT22;25713;-35.352;149.036;2023-05-14T06:02:30;17.00;75.00
40023;DHT22;25713;-35.352;149.036;2023-05-14T06:04:59;16.90;76.60
40023;DHT22;25713;-35.352;149.036;2023-05-14T06:07:29;16.90;76.20
40023;DHT22;25713;-35.352;149.036;2023-05-14T06:09:58;16.90;76.90
40023;DHT22;25713;-35.352;149.036;2023-05-14T06:12:30;16.90;77.30
40023;DHT22;25713;-35.352;149.036;2023-05-14T06:14:59;16.90;78.00
40023;DHT22;25713;-35.352;149.036;2023-05-14T06:17:29;16.90;77.80
40023;DHT22;25713;-35.352;149.036;2023-05-14T06:19:58;16.90;78.60
40023;DHT22;25713;-35.352;149.036;2023-05-14T06:22:27;16.80;79.00
40023;DHT22;25713;-35.352;149.036;2023-05-14T06:24:57;16.80;79.30
40023;DHT22;25713;-35.352;149.036;2023-05-14T06:27:28;16.80;79.70
40023;DHT22;25713;-35.352;149.036;2023-05-14T06:29:58;16.80;80.00
40023;DHT22;25713;-35.352;149.036;2023-05-14T06:32:27;16.80;80.40
40023;DHT22;25713;-35.352;149.036;2023-05-14T06:34:57;16.80;80.70
40023;DHT22;25713;-35.352;149.036;2023-05-14T06:37:27;16.80;80.80
40023;DHT22;25713;-35.352;149.036;2023-05-14T06:39:57;16.80;81.30
40023;DHT22;25713;-35.352;149.036;2023-05-14T06:42:29;16.80;81.30
40023;DHT22;25713;-35.352;149.036;2023-05-14T06:45:00;16.80;81.50
40023;DHT22;25713;-35.352;149.036;2023-05-14T06:47:29;16.80;81.80
40023;DHT22;25713;-35.352;149.036;2023-05-14T06:49:59;16.80;81.90
40023;DHT22;25713;-35.352;149.036;2023-05-14T06:52:29;16.70;82.20
40023;DHT22;25713;-35.352;149.036;2023-05-14T06:54:59;16.70;82.50
40023;DHT22;25713;-35.352;149.036;2023-05-14T06:57:30;16.70;82.50
40023;DHT22;25713;-35.352;149.036;2023-05-14T06:59:59;16.70;82.80
40023;DHT22;25713;-35.352;149.036;2023-05-14T07:02:28;16.70;82.90
40023;DHT22;25713;-35.352;149.036;2023-05-14T07:04:58;16.70;83.20
40023;DHT22;25713;-35.352;149.036;2023-05-14T07:07:27;16.70;83.40
40023;DHT22;25713;-35.352;149.036;2023-05-14T07:09:57;16.70;83.60
40023;DHT22;25713;-35.352;149.036;2023-05-14T07:12:29;16.60;83.70
40023;DHT22;25713;-35.352;149.036;2023-05-14T07:14:58;16.70;83.70
40023;DHT22;25713;-35.352;149.036;2023-05-14T07:17:27;16.60;83.70
40023;DHT22;25713;-35.352;149.036;2023-05-14T07:19:57;16.60;83.70
40023;DHT22;25713;-35.352;149.036;2023-05-14T07:22:26;16.60;83.80
40023;DHT22;25713;-35.352;149.036;2023-05-14T07:24:56;16.60;83.90
40023;DHT22;25713;-35.352;149.036;2023-05-14T07:27:25;16.60;83.80
40023;DHT22;25713;-35.352;149.036;2023-05-14T07:29:59;16.50;83.80
40023;DHT22;25713;-35.352;149.036;2023-05-14T07:32:28;16.50;83.90
40023;DHT22;25713;-35.352;149.036;2023-05-14T07:34:58;16.50;84.10
40023;DHT22;25713;-35.352;149.036;2023-05-14T07:37:28;16.50;83.90
40023;DHT22;25713;-35.352;149.036;2023-05-14T07:39:58;16.50;84.10
40023;DHT22;25713;-35.352;149.036;2023-05-14T07:42:27;16.50;84.30
40023;DHT22;25713;-35.352;149.036;2023-05-14T07:45:00;16.50;84.10
40023;DHT22;25713;-35.352;149.036;2023-05-14T07:47:30;16.50;84.10
40023;DHT22;25713;-35.352;149.036;2023-05-14T07:49:59;16.50;84.40
40023;DHT22;25713;-35.352;149.036;2023-05-14T07:52:29;16.50;84.40
40023;DHT22;25713;-35.352;149.036;2023-05-14T07:54:58;16.50;84.60
40023;DHT22;25713;-35.352;149.036;2023-05-14T07:57:27;16.40;84.00
40023;DHT22;25713;-35.352;149.036;2023-05-14T07:59:59;16.40;83.90
40023;DHT22;25713;-35.352;149.036;2023-05-14T08:02:28;16.40;84.40
40023;DHT22;25713;-35.352;149.036;2023-05-14T08:04:58;16.40;84.60
40023;DHT22;25713;-35.352;149.036;2023-05-14T08:07:27;16.40;84.50
40023;DHT22;25713;-35.352;149.036;2023-05-14T08:09:57;16.40;84.30
40023;DHT22;25713;-35.352;149.036;2023-05-14T08:12:26;16.30;84.30
40023;DHT22;25713;-35.352;149.036;2023-05-14T08:14:57;16.40;84.30
40023;DHT22;25713;-35.352;149.036;2023-05-14T08:17:27;16.30;84.30
40023;DHT22;25713;-35.352;149.036;2023-05-14T08:19:57;16.30;84.20
40023;DHT22;25713;-35.352;149.036;2023-05-14T08:22:26;16.30;84.20
40023;DHT22;25713;-35.352;149.036;2023-05-14T08:24:56;16.30;84.80
40023;DHT22;25713;-35.352;149.036;2023-05-14T08:27:26;16.30;85.20
40023;DHT22;25713;-35.352;149.036;2023-05-14T08:29:55;16.30;84.20
40023;DHT22;25713;-35.352;149.036;2023-05-14T08:32:27;16.20;85.20
40023;DHT22;25713;-35.352;149.036;2023-05-14T08:34:56;16.20;85.30
40023;DHT22;25713;-35.352;149.036;2023-05-14T08:37:26;16.20;85.00
40023;DHT22;25713;-35.352;149.036;2023-05-14T08:39:55;16.20;85.40
40023;DHT22;25713;-35.352;149.036;2023-05-14T08:42:25;16.20;85.20
40023;DHT22;25713;-35.352;149.036;2023-05-14T08:44:59;16.20;84.70
40023;DHT22;25713;-35.352;149.036;2023-05-14T08:47:32;16.20;84.80
40023;DHT22;25713;-35.352;149.036;2023-05-14T08:50:02;16.20;85.00
40023;DHT22;25713;-35.352;149.036;2023-05-14T08:52:32;16.20;84.90
40023;DHT22;25713;-35.352;149.036;2023-05-14T08:55:03;16.20;85.20
40023;DHT22;25713;-35.352;149.036;2023-05-14T08:57:33;16.20;85.50
40023;DHT22;25713;-35.352;149.036;2023-05-14T09:00:04;16.20;85.30
40023;DHT22;25713;-35.352;149.036;2023-05-14T09:02:37;16.10;85.70
40023;DHT22;25713;-35.352;149.036;2023-05-14T09:05:08;16.10;85.70
40023;DHT22;25713;-35.352;149.036;2023-05-14T09:07:38;16.10;85.90
40023;DHT22;25713;-35.352;149.036;2023-05-14T09:10:08;16.10;86.40
40023;DHT22;25713;-35.352;149.036;2023-05-14T09:12:38;16.10;85.90
40023;DHT22;25713;-35.352;149.036;2023-05-14T09:15:08;16.10;85.90
40023;DHT22;25713;-35.352;149.036;2023-05-14T09:17:40;16.10;86.20
40023;DHT22;25713;-35.352;149.036;2023-05-14T09:20:10;16.10;86.50
40023;DHT22;25713;-35.352;149.036;2023-05-14T09:22:40;16.10;86.10
40023;DHT22;25713;-35.352;149.036;2023-05-14T09:25:11;16.10;85.90
40023;DHT22;25713;-35.352;149.036;2023-05-14T09:27:41;16.00;86.10
40023;DHT22;25713;-35.352;149.036;2023-05-14T09:30:11;16.00;86.30
40023;DHT22;25713;-35.352;149.036;2023-05-14T09:32:44;16.00;86.10
40023;DHT22;25713;-35.352;149.036;2023-05-14T09:35:16;16.00;86.10
40023;DHT22;25713;-35.352;149.036;2023-05-14T09:37:47;16.00;86.40
40023;DHT22;25713;-35.352;149.036;2023-05-14T09:40:17;16.00;86.30
40023;DHT22;25713;-35.352;149.036;2023-05-14T09:42:48;16.00;85.90
40023;DHT22;25713;-35.352;149.036;2023-05-14T09:45:17;16.00;86.20
40023;DHT22;25713;-35.352;149.036;2023-05-14T09:47:50;16.00;85.80
40023;DHT22;25713;-35.352;149.036;2023-05-14T09:50:20;15.90;86.20
40023;DHT22;25713;-35.352;149.036;2023-05-14T09:52:49;15.90;86.30
40023;DHT22;25713;-35.352;149.036;2023-05-14T09:55:20;15.90;86.80
40023;DHT22;25713;-35.352;149.036;2023-05-14T09:57:50;15.90;86.90
40023;DHT22;25713;-35.352;149.036;2023-05-14T10:00:20;15.90;86.70
40023;DHT22;25713;-35.352;149.036;2023-05-14T10:02:54;15.90;86.40
40023;DHT22;25713;-35.352;149.036;2023-05-14T10:05:25;15.90;86.30
40023;DHT22;25713;-35.352;149.036;2023-05-14T10:07:57;15.90;86.10
40023;DHT22;25713;-35.352;149.036;2023-05-14T10:10:29;15.90;85.60
40023;DHT22;25713;-35.352;149.036;2023-05-14T10:13:02;15.90;85.40
40023;DHT22;25713;-35.352;149.036;2023-05-14T10:15:36;15.90;86.40
40023;DHT22;25713;-35.352;149.036;2023-05-14T10:18:11;15.80;86.10
40023;DHT22;25713;-35.352;149.036;2023-05-14T10:20:41;15.80;85.90
40023;DHT22;25713;-35.352;149.036;2023-05-14T10:23:11;15.80;85.90
40023;DHT22;25713;-35.352;149.036;2023-05-14T10:25:41;15.80;85.60
40023;DHT22;25713;-35.352;149.036;2023-05-14T10:28:11;15.80;86.20
40023;DHT22;25713;-35.352;149.036;2023-05-14T10:30:44;15.80;86.40
40023;DHT22;25713;-35.352;149.036;2023-05-14T10:33:16;15.80;86.50
40023;DHT22;25713;-35.352;149.036;2023-05-14T10:35:56;15.80;86.50
40023;DHT22;25713;-35.352;149.036;2023-05-14T10:38:27;15.80;86.40
40023;DHT22;25713;-35.352;149.036;2023-05-14T10:40:59;15.80;86.60
40023;DHT22;25713;-35.352;149.036;2023-05-14T10:43:29;15.70;86.50
40023;DHT22;25713;-35.352;149.036;2023-05-14T10:46:00;15.70;86.10
40023;DHT22;25713;-35.352;149.036;2023-05-14T10:48:32;15.70;86.50
40023;DHT22;25713;-35.352;149.036;2023-05-14T10:51:02;15.70;86.00
40023;DHT22;25713;-35.352;149.036;2023-05-14T10:53:33;15.70;86.10
40023;DHT22;25713;-35.352;149.036;2023-05-14T10:56:08;15.70;86.10
40023;DHT22;25713;-35.352;149.036;2023-05-14T10:58:38;15.70;86.20
40023;DHT22;25713;-35.352;149.036;2023-05-14T11:01:09;15.70;86.00
40023;DHT22;25713;-35.352;149.036;2023-05-14T11:03:45;15.60;85.90
40023;DHT22;25713;-35.352;149.036;2023-05-14T11:06:16;15.70;85.70
40023;DHT22;25713;-35.352;149.036;2023-05-14T11:08:45;15.60;85.00
40023;DHT22;25713;-35.352;149.036;2023-05-14T11:11:18;15.60;85.40
40023;DHT22;25713;-35.352;149.036;2023-05-14T11:13:48;15.60;85.60
40023;DHT22;25713;-35.352;149.036;2023-05-14T11:16:18;15.60;85.00
40023;DHT22;25713;-35.352;149.036;2023-05-14T11:18:53;15.60;84.90
40023;DHT22;25713;-35.352;149.036;2023-05-14T11:21:29;15.60;85.10
40023;DHT22;25713;-35.352;149.036;2023-05-14T11:23:59;15.60;85.50
40023;DHT22;25713;-35.352;149.036;2023-05-14T11:26:30;15.50;85.40
40023;DHT22;25713;-35.352;149.036;2023-05-14T11:29:00;15.50;85.60
40023;DHT22;25713;-35.352;149.036;2023-05-14T11:31:29;15.50;85.60
40023;DHT22;25713;-35.352;149.036;2023-05-14T11:34:02;15.50;85.80
40023;DHT22;25713;-35.352;149.036;2023-05-14T11:36:30;15.50;85.60
40023;DHT22;25713;-35.352;149.036;2023-05-14T11:38:59;15.50;85.70
40023;DHT22;25713;-35.352;149.036;2023-05-14T11:41:29;15.60;85.80
40023;DHT22;25713;-35.352;149.036;2023-05-14T11:43:59;15.50;86.40
40023;DHT22;25713;-35.352;149.036;2023-05-14T11:46:28;15.50;85.90
40023;DHT22;25713;-35.352;149.036;2023-05-14T11:49:01;15.50;85.90
40023;DHT22;25713;-35.352;149.036;2023-05-14T11:51:32;15.50;86.10
40023;DHT22;25713;-35.352;149.036;2023-05-14T11:54:01;15.50;86.20
40023;DHT22;25713;-35.352;149.036;2023-05-14T11:56:31;15.50;85.90
40023;DHT22;25713;-35.352;149.036;2023-05-14T11:59:00;15.40;85.50
40023;DHT22;25713;-35.352;149.036;2023-05-14T12:01:31;15.50;86.00
40023;DHT22;25713;-35.352;149.036;2023-05-14T12:04:06;15.50;85.80
40023;DHT22;25713;-35.352;149.036;2023-05-14T12:06:37;15.40;85.70
40023;DHT22;25713;-35.352;149.036;2023-05-14T12:09:07;15.40;86.60
40023;DHT22;25713;-35.352;149.036;2023-05-14T12:11:37;15.40;86.00
40023;DHT22;25713;-35.352;149.036;2023-05-14T12:14:12;15.40;85.90
40023;DHT22;25713;-35.352;149.036;2023-05-14T12:16:44;15.40;85.70
40023;DHT22;25713;-35.352;149.036;2023-05-14T12:19:16;15.40;85.70
40023;DHT22;25713;-35.352;149.036;2023-05-14T12:21:46;15.40;85.50
40023;DHT22;25713;-35.352;149.036;2023-05-14T12:24:17;15.40;84.90
40023;DHT22;25713;-35.352;149.036;2023-05-14T12:26:47;15.40;85.80
40023;DHT22;25713;-35.352;149.036;2023-05-14T12:29:17;15.40;85.30
40023;DHT22;25713;-35.352;149.036;2023-05-14T12:31:48;15.30;84.90
40023;DHT22;25713;-35.352;149.036;2023-05-14T12:34:20;15.30;85.20
40023;DHT22;25713;-35.352;149.036;2023-05-14T12:36:49;15.40;85.20
40023;DHT22;25713;-35.352;149.036;2023-05-14T12:39:19;15.30;85.60
40023;DHT22;25713;-35.352;149.036;2023-05-14T12:41:48;15.30;85.30
40023;DHT22;25713;-35.352;149.036;2023-05-14T12:44:18;15.30;85.20
40023;DHT22;25713;-35.352;149.036;2023-05-14T12:46:48;15.30;85.50
40023;DHT22;25713;-35.352;149.036;2023-05-14T12:49:20;15.30;85.30
40023;DHT22;25713;-35.352;149.036;2023-05-14T12:51:49;15.30;85.40
40023;DHT22;25713;-35.352;149.036;2023-05-14T12:54:19;15.30;85.50
40023;DHT22;25713;-35.352;149.036;2023-05-14T12:56:48;15.30;85.10
40023;DHT22;25713;-35.352;149.036;2023-05-14T12:59:18;15.30;85.30
40023;DHT22;25713;-35.352;149.036;2023-05-14T13:01:47;15.20;85.20
40023;DHT22;25713;-35.352;149.036;2023-05-14T13:04:19;15.30;85.30
40023;DHT22;25713;-35.352;149.036;2023-05-14T13:06:51;15.20;85.20
40023;DHT22;25713;-35.352;149.036;2023-05-14T13:09:20;15.30;85.40
40023;DHT22;25713;-35.352;149.036;2023-05-14T13:11:50;15.30;85.20
40023;DHT22;25713;-35.352;149.036;2023-05-14T13:14:20;15.20;85.10
40023;DHT22;25713;-35.352;149.036;2023-05-14T13:16:49;15.20;85.00
40023;DHT22;25713;-35.352;149.036;2023-05-14T13:19:21;15.20;85.10
40023;DHT22;25713;-35.352;149.036;2023-05-14T13:21:50;15.20;85.00
40023;DHT22;25713;-35.352;149.036;2023-05-14T13:24:20;15.20;85.40
40023;DHT22;25713;-35.352;149.036;2023-05-14T13:26:49;15.20;84.90
40023;DHT22;25713;-35.352;149.036;2023-05-14T13:29:19;15.20;84.90
40023;DHT22;25713;-35.352;149.036;2023-05-14T13:31:48;15.20;84.70
40023;DHT22;25713;-35.352;149.036;2023-05-14T13:34:20;15.20;84.60
40023;DHT22;25713;-35.352;149.036;2023-05-14T13:36:50;15.20;84.40
40023;DHT22;25713;-35.352;149.036;2023-05-14T13:39:19;15.20;84.60
40023;DHT22;25713;-35.352;149.036;2023-05-14T13:41:49;15.20;84.70
40023;DHT22;25713;-35.352;149.036;2023-05-14T13:44:18;15.10;84.60
40023;DHT22;25713;-35.352;149.036;2023-05-14T13:46:48;15.10;84.60
40023;DHT22;25713;-35.352;149.036;2023-05-14T13:49:20;15.20;84.70
40023;DHT22;25713;-35.352;149.036;2023-05-14T13:51:49;15.10;84.60
40023;DHT22;25713;-35.352;149.036;2023-05-14T13:54:19;15.20;84.80
40023;DHT22;25713;-35.352;149.036;2023-05-14T13:56:49;15.10;84.80
40023;DHT22;25713;-35.352;149.036;2023-05-14T13:59:18;15.10;84.70
40023;DHT22;25713;-35.352;149.036;2023-05-14T14:01:48;15.10;84.70
40023;DHT22;25713;-35.352;149.036;2023-05-14T14:04:19;15.10;84.70
40023;DHT22;25713;-35.352;149.036;2023-05-14T14:06:49;15.10;84.80
40023;DHT22;25713;-35.352;149.036;2023-05-14T14:09:19;15.10;84.80
40023;DHT22;25713;-35.352;149.036;2023-05-14T14:11:49;15.10;84.80
40023;DHT22;25713;-35.352;149.036;2023-05-14T14:14:18;15.10;84.80
40023;DHT22;25713;-35.352;149.036;2023-05-14T14:16:48;15.10;84.80
40023;DHT22;25713;-35.352;149.036;2023-05-14T14:19:20;15.10;84.80
40023;DHT22;25713;-35.352;149.036;2023-05-14T14:21:49;15.10;84.90
40023;DHT22;25713;-35.352;149.036;2023-05-14T14:24:19;15.10;84.80
40023;DHT22;25713;-35.352;149.036;2023-05-14T14:26:49;15.10;85.00
40023;DHT22;25713;-35.352;149.036;2023-05-14T14:29:18;15.00;84.90
40023;DHT22;25713;-35.352;149.036;2023-05-14T14:31:48;15.10;85.10
40023;DHT22;25713;-35.352;149.036;2023-05-14T14:34:17;15.00;85.10
40023;DHT22;25713;-35.352;149.036;2023-05-14T14:36:49;15.10;85.10
40023;DHT22;25713;-35.352;149.036;2023-05-14T14:39:18;15.10;85.10
40023;DHT22;25713;-35.352;149.036;2023-05-14T14:41:48;15.10;85.00
40023;DHT22;25713;-35.352;149.036;2023-05-14T14:44:18;15.00;84.80
40023;DHT22;25713;-35.352;149.036;2023-05-14T14:46:47;15.00;84.70
40023;DHT22;25713;-35.352;149.036;2023-05-14T15:51:02;14.70;85.60
40023;DHT22;25713;-35.352;149.036;2023-05-14T15:53:32;14.60;86.20
40023;DHT22;25713;-35.352;149.036;2023-05-14T15:56:01;14.60;86.20
40023;DHT22;25713;-35.352;149.036;2023-05-14T15:58:31;14.60;86.20
40023;DHT22;25713;-35.352;149.036;2023-05-14T16:01:00;14.70;86.10
40023;DHT22;25713;-35.352;149.036;2023-05-14T16:03:30;14.70;86.00
40023;DHT22;25713;-35.352;149.036;2023-05-14T16:06:01;14.70;85.90
40023;DHT22;25713;-35.352;149.036;2023-05-14T16:08:31;14.70;85.80